Hot Springs, Ingalls Field (KHSP)

NameIngalls Field
CityHot Springs
CountryUnited States
ICAOKHSP
IATA
Altitude1156 m
CoordinatesGoogle Map
Live Air TrafficLiveATC.net
METARKHSP 210955Z AUTO 16005KT M1/4SM DZ OVC001 20/20 A3014 RMK AO2 T01950195
2018-08-21 09:55:00 Wind: South-Southeast (160°) 2.57 m/s - Visibility: 6437.36 m - Weather: Drizzle - Temperature: 20 °C - Dew point: 20 °C - Humidity: 100% - Pressure: 1020.66 hPa
Statistics

The table below shows the detailed information of all flights to/from Hot Springs, Ingalls Field (KHSP).